createdAt,value
2022-09-23T00:01:42.126Z,6.64
2022-09-23T00:04:10.303Z,6.56
2022-09-23T00:06:38.329Z,6.49
2022-09-23T00:09:06.732Z,6.52
2022-09-23T00:11:34.653Z,6.52
2022-09-23T00:14:07.043Z,6.47
2022-09-23T00:19:31.667Z,6.41
2022-09-23T00:22:02.614Z,6.42
2022-09-23T00:24:32.557Z,6.40
2022-09-23T00:27:00.535Z,6.39
2022-09-23T00:29:28.720Z,6.42
2022-09-23T00:32:01.093Z,6.55
2022-09-23T00:34:33.162Z,6.57
2022-09-23T00:37:01.104Z,6.59
2022-09-23T00:39:29.508Z,6.65
2022-09-23T00:41:57.398Z,6.72
2022-09-23T00:44:44.819Z,6.78
2022-09-23T00:47:17.862Z,6.83
2022-09-23T00:49:53.969Z,6.89
2022-09-23T00:52:25.284Z,6.90
2022-09-23T00:54:56.668Z,6.97
2022-09-23T00:57:25.857Z,7.06
2022-09-23T00:59:54.045Z,7.10
2022-09-23T01:02:24.570Z,7.08
2022-09-23T01:04:56.542Z,7.05
2022-09-23T01:07:27.062Z,7.08
2022-09-23T01:09:55.418Z,7.09
2022-09-23T01:12:38.362Z,7.11
2022-09-23T01:15:15.733Z,7.10
2022-09-23T01:17:52.871Z,7.02
2022-09-23T01:20:56.555Z,6.96
2022-09-23T01:23:56.286Z,7.01
2022-09-23T01:26:47.130Z,7.01
2022-09-23T01:29:33.302Z,6.99
2022-09-23T01:32:08.981Z,6.93
2022-09-23T01:34:47.033Z,6.88
2022-09-23T01:37:22.643Z,6.88
2022-09-23T01:40:00.989Z,6.87
2022-09-23T01:42:39.566Z,6.84
2022-09-23T01:45:15.349Z,6.82
2022-09-23T01:47:52.042Z,6.79
2022-09-23T01:50:40.175Z,6.80
2022-09-23T01:53:13.692Z,6.77
2022-09-23T01:55:44.255Z,6.75
2022-09-23T01:58:20.803Z,6.67
2022-09-23T02:03:43.713Z,6.66
2022-09-23T02:06:17.167Z,6.64
2022-09-23T02:08:53.864Z,6.59
2022-09-23T02:11:22.023Z,6.66
2022-09-23T02:13:55.022Z,6.52
2022-09-23T02:16:28.024Z,6.51
2022-09-23T02:19:01.258Z,6.47
2022-09-23T02:21:36.059Z,6.45
2022-09-23T02:24:11.816Z,6.44
2022-09-23T02:26:48.882Z,6.36
2022-09-23T02:29:23.759Z,6.33
2022-09-23T02:31:59.847Z,6.29
2022-09-23T02:34:42.482Z,6.39
2022-09-23T02:37:22.858Z,6.40
2022-09-23T02:40:00.775Z,6.41
2022-09-23T02:42:40.099Z,6.44
2022-09-23T02:45:08.463Z,6.50
2022-09-23T02:47:40.667Z,6.41
2022-09-23T02:50:12.369Z,6.40
2022-09-23T02:52:40.997Z,6.43
2022-09-23T02:55:13.268Z,6.39
2022-09-23T02:57:43.334Z,6.40
2022-09-23T03:00:13.183Z,6.32
2022-09-23T03:02:59.252Z,6.34
2022-09-23T03:05:31.650Z,6.30
2022-09-23T03:08:25.662Z,6.28
2022-09-23T03:11:04.445Z,6.21
2022-09-23T03:13:42.735Z,6.23
2022-09-23T03:16:18.087Z,6.19
2022-09-23T03:18:54.711Z,6.11
2022-09-23T03:21:30.946Z,6.14
2022-09-23T03:24:03.823Z,6.08
2022-09-23T03:26:34.398Z,6.04
2022-09-23T03:29:05.261Z,6.10
2022-09-23T03:31:34.878Z,6.11
2022-09-23T03:34:07.245Z,6.02
2022-09-23T03:36:53.733Z,6.00
2022-09-23T03:39:32.647Z,5.97
2022-09-23T03:42:04.772Z,5.89
2022-09-23T03:44:39.228Z,5.81
2022-09-23T03:47:07.627Z,5.85
2022-09-23T03:49:39.367Z,5.83
2022-09-23T03:52:11.034Z,5.79
2022-09-23T03:54:39.338Z,5.74
2022-09-23T03:57:07.752Z,5.73
2022-09-23T03:59:39.227Z,5.79
2022-09-23T04:02:08.138Z,5.76
2022-09-23T04:04:40.283Z,5.72
2022-09-23T04:07:08.218Z,5.74
2022-09-23T04:09:38.199Z,5.70
2022-09-23T04:12:07.274Z,5.67
2022-09-23T04:14:37.366Z,5.62
2022-09-23T04:17:07.829Z,5.60
2022-09-23T04:19:35.903Z,5.60
2022-09-23T04:22:04.405Z,5.56
2022-09-23T04:24:32.511Z,5.55
2022-09-23T04:27:02.061Z,5.56
2022-09-23T04:29:29.951Z,5.50
2022-09-23T04:31:58.328Z,5.48
2022-09-23T04:34:26.261Z,5.44
2022-09-23T04:36:54.448Z,5.42
2022-09-23T04:39:22.335Z,5.41
2022-09-23T04:41:50.515Z,5.44
2022-09-23T04:44:22.165Z,5.43
2022-09-23T04:46:50.457Z,5.44
2022-09-23T04:49:18.491Z,5.37
2022-09-23T04:51:47.694Z,5.32
2022-09-23T04:54:15.760Z,5.29
2022-09-23T04:56:44.076Z,5.18
2022-09-23T04:59:11.899Z,5.07
2022-09-23T05:01:41.771Z,5.00
2022-09-23T05:04:14.066Z,4.92
2022-09-23T05:06:45.118Z,4.89
2022-09-23T05:09:17.323Z,4.90
2022-09-23T05:11:45.607Z,4.92
2022-09-23T05:14:15.914Z,4.90
2022-09-23T05:16:45.284Z,4.93
2022-09-23T05:20:30.844Z,4.90
2022-09-23T05:23:02.155Z,5.02
2022-09-23T05:25:30.283Z,5.02
2022-09-23T05:27:58.501Z,5.08
2022-09-23T05:30:26.506Z,5.14
2022-09-23T05:32:54.759Z,5.24
2022-09-23T05:35:25.082Z,5.36
2022-09-23T05:37:54.608Z,5.49
2022-09-23T05:40:22.805Z,5.62
2022-09-23T05:42:51.349Z,5.74
2022-09-23T05:45:19.575Z,5.88
2022-09-23T05:47:50.342Z,5.99
2022-09-23T05:50:18.653Z,6.10
2022-09-23T05:52:46.784Z,6.20
2022-09-23T05:55:16.949Z,6.30
2022-09-23T05:57:47.842Z,6.44
2022-09-23T06:00:16.815Z,6.56
2022-09-23T06:02:44.828Z,6.74
2022-09-23T06:05:14.013Z,6.87
2022-09-23T06:07:41.906Z,7.09
2022-09-23T06:10:13.537Z,7.28
2022-09-23T06:12:44.936Z,7.52
2022-09-23T06:15:15.600Z,7.68
2022-09-23T06:17:47.211Z,7.89
2022-09-23T06:20:15.467Z,8.05
2022-09-23T06:22:43.552Z,8.27
2022-09-23T06:25:12.212Z,8.39
2022-09-23T06:27:44.170Z,8.47
2022-09-23T06:30:14.712Z,8.52
2022-09-23T06:32:50.225Z,8.58
2022-09-23T06:35:26.032Z,8.62
2022-09-23T06:37:55.499Z,8.81
2022-09-23T06:40:26.195Z,8.89
2022-09-23T06:43:00.516Z,9.13
2022-09-23T06:45:30.981Z,9.19
2022-09-23T06:48:04.951Z,9.20
2022-09-23T06:50:32.890Z,9.43
2022-09-23T06:53:00.817Z,9.63
2022-09-23T06:55:31.717Z,9.88
2022-09-23T06:58:01.435Z,10.09
2022-09-23T07:00:29.450Z,10.20
2022-09-23T07:02:57.960Z,10.40
2022-09-23T07:05:26.193Z,10.71
2022-09-23T07:07:56.366Z,10.91
2022-09-23T07:10:24.625Z,11.28
2022-09-23T07:12:52.789Z,11.66
2022-09-23T07:15:22.282Z,11.75
2022-09-23T07:17:52.478Z,11.81
2022-09-23T07:20:20.522Z,11.92
2022-09-23T07:22:51.086Z,11.99
2022-09-23T07:25:19.251Z,12.49
2022-09-23T07:27:48.106Z,12.60
2022-09-23T07:30:23.226Z,12.84
2022-09-23T07:32:56.658Z,13.11
2022-09-23T07:35:28.215Z,13.97
2022-09-23T07:37:58.522Z,14.37
2022-09-23T07:40:29.202Z,15.10
2022-09-23T07:42:57.827Z,14.99
2022-09-23T07:45:27.317Z,15.50
2022-09-23T07:47:56.880Z,15.66
2022-09-23T07:50:25.336Z,16.44
2022-09-23T07:52:53.560Z,15.52
2022-09-23T07:55:21.787Z,15.66
2022-09-23T07:57:49.766Z,15.69
2022-09-23T08:00:18.637Z,15.03
2022-09-23T08:02:49.558Z,16.10
2022-09-23T08:05:22.767Z,15.54
2022-09-23T08:07:50.803Z,15.05
2022-09-23T08:10:21.165Z,16.44
2022-09-23T08:12:52.615Z,16.71
2022-09-23T08:15:20.893Z,17.35
2022-09-23T08:17:49.247Z,17.53
2022-09-23T08:20:31.196Z,17.44
2022-09-23T08:23:00.617Z,18.39
2022-09-23T08:25:30.049Z,19.30
2022-09-23T08:28:00.619Z,19.64
2022-09-23T08:30:30.870Z,18.95
2022-09-23T08:32:59.109Z,18.89
2022-09-23T08:35:27.013Z,19.45
2022-09-23T08:37:55.197Z,19.49
2022-09-23T08:40:25.301Z,20.21
2022-09-23T08:42:53.480Z,20.41
2022-09-23T08:45:26.311Z,21.41
2022-09-23T08:47:56.379Z,20.44
2022-09-23T08:50:28.491Z,21.69
2022-09-23T08:52:59.538Z,22.09
2022-09-23T08:55:35.538Z,22.85
2022-09-23T08:58:28.742Z,22.15
2022-09-23T09:01:07.984Z,23.08
2022-09-23T09:03:46.241Z,22.94
2022-09-23T09:06:19.007Z,20.81
2022-09-23T09:08:56.936Z,21.24
2022-09-23T09:11:34.332Z,21.68
2022-09-23T09:14:17.934Z,21.05
2022-09-23T09:16:59.952Z,21.23
2022-09-23T09:19:52.726Z,21.89
2022-09-23T09:22:24.989Z,21.67
2022-09-23T09:24:58.459Z,22.68
2022-09-23T09:27:28.049Z,21.60
2022-09-23T09:30:01.629Z,21.15
2022-09-23T09:32:47.407Z,22.61
2022-09-23T09:35:26.548Z,22.89
2022-09-23T09:37:54.992Z,22.47
2022-09-23T09:40:23.115Z,22.79
2022-09-23T09:42:54.988Z,22.94
2022-09-23T09:45:40.098Z,24.10
2022-09-23T09:48:13.565Z,23.10
2022-09-23T09:50:49.010Z,21.94
2022-09-23T09:53:27.671Z,20.78
2022-09-23T09:56:04.937Z,20.44
2022-09-23T09:58:46.046Z,21.38
2022-09-23T10:01:22.455Z,21.28
2022-09-23T10:03:55.530Z,22.29
2022-09-23T10:06:27.709Z,22.69
2022-09-23T10:09:12.788Z,22.83
2022-09-23T10:11:41.790Z,22.89
2022-09-23T10:14:18.611Z,22.26
2022-09-23T10:16:48.758Z,22.07
2022-09-23T10:21:37.351Z,22.80
2022-09-23T10:24:08.063Z,21.98
2022-09-23T10:26:43.704Z,22.27
2022-09-23T10:29:24.190Z,23.03
2022-09-23T10:32:30.120Z,23.74
2022-09-23T10:35:05.166Z,22.61
2022-09-23T10:37:38.573Z,23.05
2022-09-23T10:40:34.345Z,23.73
2022-09-23T10:43:44.915Z,23.66
2022-09-23T10:46:37.060Z,24.44
2022-09-23T10:49:17.582Z,25.85
2022-09-23T10:51:56.699Z,25.44
2022-09-23T10:54:38.891Z,24.01
2022-09-23T10:57:31.029Z,23.81
2022-09-23T11:00:03.820Z,23.44
2022-09-23T11:02:56.909Z,24.18
2022-09-23T11:05:32.731Z,24.68
2022-09-23T11:08:18.402Z,24.19
2022-09-23T11:11:00.644Z,23.09
2022-09-23T11:13:41.136Z,24.39
2022-09-23T11:16:19.509Z,24.67
2022-09-23T11:19:09.054Z,24.17
2022-09-23T11:22:00.995Z,23.81
2022-09-23T11:24:50.048Z,22.80
2022-09-23T11:27:35.524Z,23.85
2022-09-23T11:30:10.110Z,23.54
2022-09-23T11:33:14.197Z,22.35
2022-09-23T11:35:48.457Z,24.32
2022-09-23T11:38:25.983Z,24.01
2022-09-23T11:40:59.877Z,23.67
2022-09-23T11:43:32.045Z,24.24
2022-09-23T11:46:09.665Z,25.00
2022-09-23T11:48:47.350Z,23.87
2022-09-23T11:51:23.470Z,23.17
2022-09-23T11:54:00.734Z,22.61
2022-09-23T11:56:36.887Z,22.66
2022-09-23T11:59:15.847Z,22.26
2022-09-23T12:01:49.558Z,22.56
2022-09-23T12:04:26.987Z,22.80
2022-09-23T12:07:02.418Z,22.96
2022-09-23T12:09:57.325Z,22.74
2022-09-23T12:12:37.348Z,21.86
2022-09-23T12:15:11.927Z,21.38
2022-09-23T12:18:07.943Z,21.28
2022-09-23T12:20:50.006Z,21.13
2022-09-23T12:23:34.696Z,21.34
2022-09-23T12:26:06.712Z,21.28
2022-09-23T12:28:39.760Z,21.55
2022-09-23T12:31:13.055Z,20.45
2022-09-23T12:33:50.537Z,20.48
2022-09-23T12:36:27.433Z,20.70
2022-09-23T12:39:05.173Z,20.72
2022-09-23T12:41:41.330Z,21.59
2022-09-23T12:44:30.286Z,21.55
2022-09-23T12:47:37.859Z,20.97
2022-09-23T12:50:39.131Z,20.80
2022-09-23T12:53:57.441Z,21.27
2022-09-23T12:56:29.815Z,20.80
2022-09-23T12:59:27.607Z,20.86
2022-09-23T13:01:57.839Z,20.11
2022-09-23T13:05:02.907Z,20.55
2022-09-23T13:07:34.810Z,20.25
2022-09-23T13:10:10.287Z,20.40
2022-09-23T13:12:43.861Z,20.27
2022-09-23T13:15:20.819Z,19.82
2022-09-23T13:17:50.515Z,20.08
2022-09-23T13:20:38.338Z,19.92
2022-09-23T13:23:20.337Z,19.91
2022-09-23T13:25:51.115Z,20.27
2022-09-23T13:28:30.943Z,20.40
2022-09-23T13:31:00.773Z,20.42
2022-09-23T13:33:39.862Z,20.00
2022-09-23T13:36:14.002Z,20.27
2022-09-23T13:38:42.735Z,20.10
2022-09-23T13:41:16.202Z,20.39
2022-09-23T13:43:49.165Z,20.25
2022-09-23T13:46:19.955Z,20.41
2022-09-23T13:48:54.750Z,20.18
2022-09-23T13:51:27.898Z,20.44
2022-09-23T13:53:58.147Z,20.24
2022-09-23T13:56:31.412Z,20.55
2022-09-23T13:59:21.735Z,20.78
2022-09-23T14:01:49.853Z,21.17
2022-09-23T14:04:26.154Z,20.80
2022-09-23T14:06:54.873Z,20.58
2022-09-23T14:09:30.002Z,20.74
2022-09-23T14:12:01.312Z,20.53
2022-09-23T14:14:31.403Z,20.38
2022-09-23T14:16:59.870Z,19.88
2022-09-23T14:19:29.698Z,20.00
2022-09-23T14:21:58.919Z,20.05
2022-09-23T14:24:34.351Z,20.02
2022-09-23T14:27:15.273Z,19.20
2022-09-23T14:29:45.362Z,19.17
2022-09-23T14:32:17.442Z,19.21
2022-09-23T14:34:50.536Z,19.26
2022-09-23T14:37:46.646Z,19.47
2022-09-23T14:40:17.749Z,19.64
2022-09-23T14:42:49.284Z,19.24
2022-09-23T14:45:22.575Z,19.14
2022-09-23T14:47:53.283Z,18.98
2022-09-23T14:50:40.634Z,18.80
2022-09-23T14:53:40.916Z,18.84
2022-09-23T14:56:17.116Z,18.67
2022-09-23T14:58:52.265Z,18.73
2022-09-23T15:01:34.576Z,18.73
2022-09-23T15:04:16.327Z,18.78
2022-09-23T15:06:50.741Z,18.85
2022-09-23T15:09:24.635Z,18.94
2022-09-23T15:11:54.560Z,18.97
2022-09-23T15:14:37.692Z,18.86
2022-09-23T15:17:14.659Z,18.92
2022-09-23T15:22:46.053Z,18.81
2022-09-23T15:25:20.506Z,18.75
2022-09-23T15:28:04.209Z,18.75
2022-09-23T15:30:36.949Z,18.74
2022-09-23T15:33:05.724Z,18.54
2022-09-23T15:35:37.413Z,18.50
2022-09-23T15:38:10.861Z,18.43
2022-09-23T15:40:42.073Z,18.29
2022-09-23T15:43:20.991Z,18.32
2022-09-23T15:45:53.091Z,18.24
2022-09-23T15:48:24.156Z,18.28
2022-09-23T15:50:52.963Z,18.23
2022-09-23T15:53:24.583Z,18.21
2022-09-23T15:55:53.235Z,18.13
2022-09-23T15:58:21.992Z,17.99
2022-09-23T16:00:55.934Z,18.01
2022-09-23T16:03:28.269Z,17.89
2022-09-23T16:06:01.300Z,17.84
2022-09-23T16:08:32.943Z,17.85
2022-09-23T16:11:01.448Z,17.83
2022-09-23T16:13:29.398Z,17.79
2022-09-23T16:15:57.681Z,17.78
2022-09-23T16:18:25.876Z,17.70
2022-09-23T16:20:54.752Z,17.70
2022-09-23T16:23:35.496Z,17.60
2022-09-23T16:26:13.866Z,17.54
2022-09-23T16:28:42.231Z,17.43
2022-09-23T16:31:14.181Z,17.38
2022-09-23T16:33:45.164Z,17.29
2022-09-23T16:36:18.425Z,17.21
2022-09-23T16:38:51.192Z,17.07
2022-09-23T16:41:27.779Z,16.97
2022-09-23T16:43:56.289Z,16.89
2022-09-23T16:46:24.865Z,16.80
2022-09-23T16:48:57.680Z,16.70
2022-09-23T16:51:27.643Z,16.58
2022-09-23T16:53:57.968Z,16.50
2022-09-23T16:56:32.012Z,16.41
2022-09-23T16:59:00.301Z,16.31
2022-09-23T17:01:48.134Z,16.22
2022-09-23T17:04:19.000Z,16.07
2022-09-23T17:06:50.360Z,15.98
2022-09-23T17:09:20.029Z,15.84
2022-09-23T17:11:56.412Z,15.72
2022-09-23T17:14:24.622Z,15.60
2022-09-23T17:16:52.864Z,15.51
2022-09-23T17:19:20.835Z,15.45
2022-09-23T17:21:49.005Z,15.38
2022-09-23T17:24:17.285Z,15.27
2022-09-23T17:26:49.376Z,15.13
2022-09-23T17:29:22.298Z,15.04
2022-09-23T17:31:50.508Z,14.93
2022-09-23T17:34:19.573Z,14.84
2022-09-23T17:36:47.784Z,14.78
2022-09-23T17:39:16.515Z,14.69
2022-09-23T17:41:47.208Z,14.62
2022-09-23T17:44:16.222Z,14.53
2022-09-23T17:46:49.226Z,14.44
2022-09-23T17:49:20.334Z,14.34
2022-09-23T17:51:48.283Z,14.25
2022-09-23T17:54:16.695Z,14.18
2022-09-23T17:56:45.156Z,14.10
2022-09-23T17:59:13.688Z,14.02
2022-09-23T18:01:42.185Z,13.98
2022-09-23T18:04:13.305Z,13.93
2022-09-23T18:06:44.178Z,13.89
2022-09-23T18:09:12.605Z,13.84
2022-09-23T18:11:44.963Z,13.80
2022-09-23T18:14:16.376Z,13.78
2022-09-23T18:16:46.595Z,13.70
2022-09-23T18:19:17.742Z,13.66
2022-09-23T18:21:49.594Z,13.60
2022-09-23T18:24:34.878Z,13.57
2022-09-23T18:27:03.338Z,13.49
2022-09-23T18:29:31.663Z,13.48
2022-09-23T18:32:02.705Z,13.47
2022-09-23T18:34:32.432Z,13.39
2022-09-23T18:37:00.656Z,13.42
2022-09-23T18:39:29.562Z,13.53
2022-09-23T18:41:57.624Z,13.45
2022-09-23T18:44:25.899Z,13.40
2022-09-23T18:46:53.874Z,13.32
2022-09-23T18:49:41.719Z,13.29
2022-09-23T18:52:11.547Z,13.23
2022-09-23T18:54:39.612Z,13.17
2022-09-23T18:57:09.975Z,13.12
2022-09-23T18:59:40.260Z,13.12
2022-09-23T19:02:09.771Z,13.13
2022-09-23T19:04:40.446Z,13.10
2022-09-23T19:07:08.472Z,13.03
2022-09-23T19:09:37.958Z,13.02
2022-09-23T19:12:06.274Z,12.99
2022-09-23T19:14:36.497Z,12.95
2022-09-23T19:17:07.403Z,12.93
2022-09-23T19:19:37.941Z,12.90
2022-09-23T19:22:07.120Z,12.83
2022-09-23T19:24:39.067Z,12.84
2022-09-23T19:27:07.021Z,12.81
2022-09-23T19:29:40.158Z,12.77
2022-09-23T19:32:08.143Z,12.78
2022-09-23T19:34:39.008Z,12.77
2022-09-23T19:37:07.220Z,12.72
2022-09-23T19:39:37.371Z,12.66
2022-09-23T19:42:07.792Z,12.60
2022-09-23T19:44:39.210Z,12.58
2022-09-23T19:47:07.506Z,12.50
2022-09-23T19:49:35.516Z,12.44
2022-09-23T19:52:13.171Z,12.37
2022-09-23T19:54:41.250Z,12.32
2022-09-23T19:57:10.622Z,12.24
2022-09-23T19:59:39.307Z,12.21
2022-09-23T20:02:07.606Z,12.16
2022-09-23T20:04:35.765Z,12.14
2022-09-23T20:07:08.902Z,12.07
2022-09-23T20:09:37.035Z,11.92
2022-09-23T20:12:05.237Z,11.92
2022-09-23T20:14:36.897Z,11.85
2022-09-23T20:17:05.166Z,11.78
2022-09-23T20:22:38.731Z,11.57
2022-09-23T20:25:13.319Z,11.49
2022-09-23T20:27:40.884Z,11.42
2022-09-23T20:30:11.926Z,11.34
2022-09-23T20:32:44.662Z,11.25
2022-09-23T20:35:13.552Z,11.16
2022-09-23T20:37:42.892Z,11.13
2022-09-23T20:40:11.080Z,11.05
2022-09-23T20:42:41.497Z,10.96
2022-09-23T20:45:10.672Z,10.89
2022-09-23T20:47:40.898Z,10.82
2022-09-23T20:50:10.713Z,10.73
2022-09-23T20:52:38.756Z,10.68
2022-09-23T20:55:11.127Z,10.64
2022-09-23T20:57:39.515Z,10.66
2022-09-23T21:00:09.050Z,10.70
2022-09-23T21:02:37.301Z,10.75
2022-09-23T21:05:10.509Z,10.78
2022-09-23T21:07:39.040Z,10.80
2022-09-23T21:10:08.695Z,10.77
2022-09-23T21:12:38.039Z,10.79
2022-09-23T21:15:07.147Z,10.83
2022-09-23T21:17:35.149Z,10.84
2022-09-23T21:20:03.768Z,10.87
2022-09-23T21:22:32.442Z,10.91
2022-09-23T21:25:27.044Z,10.86
2022-09-23T21:27:53.907Z,10.81
2022-09-23T21:30:22.695Z,10.81
2022-09-23T21:32:51.234Z,10.78
2022-09-23T21:35:19.751Z,10.71
2022-09-23T21:37:47.758Z,10.66
2022-09-23T21:40:33.885Z,10.62
2022-09-23T21:43:03.418Z,10.61
2022-09-23T21:45:32.433Z,10.60
2022-09-23T21:48:03.339Z,10.59
2022-09-23T21:50:32.436Z,10.56
2022-09-23T21:53:00.869Z,10.54
2022-09-23T21:55:28.915Z,10.52
2022-09-23T21:57:56.888Z,10.53
2022-09-23T22:00:26.407Z,10.54
2022-09-23T22:02:54.646Z,10.57
2022-09-23T22:05:23.170Z,10.56
2022-09-23T22:07:51.395Z,10.55
2022-09-23T22:10:19.876Z,10.54
2022-09-23T22:12:49.225Z,10.53
2022-09-23T22:15:19.727Z,10.54
2022-09-23T22:17:49.169Z,10.54
2022-09-23T22:20:22.159Z,10.56
2022-09-23T22:22:51.289Z,10.55
2022-09-23T22:25:20.356Z,10.56
2022-09-23T22:28:02.333Z,10.58
2022-09-23T22:30:47.909Z,10.60
2022-09-23T22:33:17.606Z,10.60
2022-09-23T22:35:45.738Z,10.59
2022-09-23T22:38:13.759Z,10.63
2022-09-23T22:40:43.720Z,10.59
2022-09-23T22:43:11.950Z,10.57
2022-09-23T22:45:40.052Z,10.62
2022-09-23T22:48:07.943Z,10.62
2022-09-23T22:50:41.848Z,10.62
2022-09-23T22:53:10.984Z,10.59
2022-09-23T22:55:39.463Z,10.60
2022-09-23T22:58:30.737Z,10.67
2022-09-23T23:00:57.104Z,10.72
2022-09-23T23:03:28.236Z,10.75
2022-09-23T23:06:03.905Z,10.75
2022-09-23T23:08:35.486Z,10.74
2022-09-23T23:11:05.888Z,10.73
2022-09-23T23:13:34.165Z,10.74
2022-09-23T23:16:11.686Z,10.77
2022-09-23T23:18:41.717Z,10.71
2022-09-23T23:21:13.110Z,10.72
2022-09-23T23:23:45.843Z,10.70
2022-09-23T23:26:16.189Z,10.67
2022-09-23T23:28:47.425Z,10.69
2022-09-23T23:31:18.160Z,10.70
2022-09-23T23:33:46.857Z,10.68
2022-09-23T23:36:19.280Z,10.73
2022-09-23T23:38:49.203Z,10.76
2022-09-23T23:41:20.251Z,10.72
2022-09-23T23:43:56.515Z,10.68
2022-09-23T23:46:26.539Z,10.64
2022-09-23T23:48:55.316Z,10.63
2022-09-23T23:51:26.298Z,10.62
2022-09-23T23:53:55.654Z,10.63
2022-09-23T23:56:26.293Z,10.61
2022-09-23T23:58:57.868Z,10.57
